Time;durP1;ratioP1;P1;durP2;ratioP2;P2;SDS_P1;SDS_P2;PMS_P1;PMS_P2;Temp;Humidity;BMP_temperature;BMP_pressure;BME280_temperature;BME280_humidity;BME280_pressure;Samples;Min_cycle;Max_cycle;Signal;HPM_P1;HPM_P2
2023/07/27 00:00:34;;;;;;;18.60;11.23;;;;;;;17.18;100.00;98166.97;4956565;28;20061;-63
2023/07/27 00:02:59;;;;;;;13.05;10.63;;;;;;;17.18;100.00;98160.72;4956532;28;20042;-63
2023/07/27 00:05:24;;;;;;;15.23;11.00;;;;;;;17.16;100.00;98149.31;4956483;28;20050;-63
2023/07/27 00:07:50;;;;;;;14.70;10.73;;;;;;;17.20;100.00;98164.91;4956449;28;20046;-62
2023/07/27 00:10:15;;;;;;;13.25;10.23;;;;;;;17.23;100.00;98164.56;4954307;28;20050;-62
2023/07/27 00:12:40;;;;;;;15.05;11.82;;;;;;;17.23;100.00;98166.41;4957118;28;20053;-67
2023/07/27 00:15:06;;;;;;;17.05;10.70;;;;;;;17.22;100.00;98164.72;4946848;28;20050;-65
2023/07/27 00:17:31;;;;;;;14.82;10.93;;;;;;;17.22;100.00;98162.03;4936175;28;20038;-66
2023/07/27 00:20:00;;;;;;;13.85;10.63;;;;;;;17.23;100.00;98183.41;4937656;28;20046;-66
2023/07/27 00:22:25;;;;;;;14.85;10.48;;;;;;;17.21;100.00;98180.06;4938905;28;20446;-66
2023/07/27 00:24:51;;;;;;;12.32;10.32;;;;;;;17.22;100.00;98183.59;4937450;28;20406;-66
2023/07/27 00:27:17;;;;;;;12.20;9.68;;;;;;;17.26;100.00;98198.38;4937298;28;20066;-66
2023/07/27 00:29:48;;;;;;;13.63;10.18;;;;;;;17.28;100.00;98202.50;4936444;28;20448;-69
2023/07/27 00:32:14;;;;;;;15.88;10.75;;;;;;;17.27;100.00;98200.00;4937453;28;20058;-68
2023/07/27 00:34:41;;;;;;;15.18;10.63;;;;;;;17.26;100.00;98211.81;4938729;28;20042;-67
2023/07/27 00:37:06;;;;;;;12.55;9.75;;;;;;;17.33;100.00;98210.03;4956258;28;20387;-66
2023/07/27 00:39:33;;;;;;;14.32;10.02;;;;;;;17.31;100.00;98206.69;4956133;28;20405;-65
2023/07/27 00:41:58;;;;;;;14.77;11.43;;;;;;;17.30;100.00;98205.03;4970116;28;20050;-64
2023/07/27 00:44:23;;;;;;;14.38;11.52;;;;;;;17.26;100.00;98209.13;4959829;28;20046;-65
2023/07/27 00:49:44;;;;;;;17.60;10.95;;;;;;;17.21;100.00;98216.91;4939737;28;20046;-65
2023/07/27 00:52:10;;;;;;;14.27;10.35;;;;;;;17.22;100.00;98224.81;4941315;28;20050;-64
2023/07/27 00:54:35;;;;;;;12.63;9.68;;;;;;;17.26;100.00;98225.28;4942169;28;20034;-65
2023/07/27 00:57:03;;;;;;;15.93;10.00;;;;;;;17.28;100.00;98245.63;4951732;28;20497;-63
2023/07/27 00:59:29;;;;;;;13.23;10.20;;;;;;;17.32;100.00;98246.09;4940702;28;20062;-63
2023/07/27 01:01:56;;;;;;;15.00;10.48;;;;;;;17.35;100.00;98254.63;4954764;28;20399;-63
2023/07/27 01:04:22;;;;;;;14.55;10.68;;;;;;;17.36;100.00;98247.41;4955213;28;20540;-63
2023/07/27 01:06:48;;;;;;;13.27;8.77;;;;;;;17.33;100.00;98259.38;4942034;28;20037;-63
2023/07/27 01:09:13;;;;;;;14.32;10.30;;;;;;;17.37;100.00;98246.38;4957460;28;20042;-64
2023/07/27 01:11:50;;;;;;;11.23;9.55;;;;;;;17.41;100.00;98250.34;4955562;28;20046;-63
2023/07/27 01:14:31;;;;;;;12.75;10.35;;;;;;;17.42;100.00;98246.63;4969885;28;20046;-63
2023/07/27 01:17:46;;;;;;;14.15;10.00;;;;;;;17.48;100.00;98251.28;4955142;28;20046;-64
2023/07/27 01:20:46;;;;;;;14.02;10.18;;;;;;;17.52;100.00;98257.97;4952651;28;20054;-64
2023/07/27 01:23:31;;;;;;;14.25;10.85;;;;;;;17.44;100.00;98247.28;4951054;28;20145;-63
2023/07/27 01:26:07;;;;;;;14.60;10.37;;;;;;;17.41;100.00;98261.13;4948889;28;20069;-66
2023/07/27 01:28:51;;;;;;;14.05;10.98;;;;;;;17.37;100.00;98243.69;4970460;28;20281;-66
2023/07/27 01:31:41;;;;;;;11.52;9.30;;;;;;;17.43;100.00;98248.31;4955363;28;20501;-66
2023/07/27 01:34:39;;;;;;;14.45;10.68;;;;;;;17.46;100.00;98247.94;4955377;28;20050;-66
2023/07/27 01:37:08;;;;;;;12.85;10.10;;;;;;;17.41;100.00;98266.50;4953600;28;20051;-66
2023/07/27 01:39:39;;;;;;;12.32;10.27;;;;;;;17.43;100.00;98242.91;4961135;28;20046;-66
2023/07/27 01:42:08;;;;;;;13.80;11.13;;;;;;;17.40;100.00;98244.13;4970173;28;20501;-66
2023/07/27 01:44:34;;;;;;;15.05;10.65;;;;;;;17.41;100.00;98250.34;4970040;28;20045;-66
2023/07/27 01:47:00;;;;;;;12.85;10.60;;;;;;;17.40;100.00;98243.28;4937285;28;20050;-67
2023/07/27 01:49:27;;;;;;;15.32;11.02;;;;;;;17.37;100.00;98232.91;4954988;28;20049;-67
2023/07/27 01:51:55;;;;;;;14.10;10.25;;;;;;;17.37;100.00;98230.22;4953035;28;20050;-65
2023/07/27 01:54:21;;;;;;;13.43;10.40;;;;;;;17.39;100.00;98222.75;4943487;28;20046;-65
2023/07/27 01:56:48;;;;;;;13.35;10.43;;;;;;;17.42;100.00;98225.06;4955376;28;20054;-66
2023/07/27 01:59:13;;;;;;;13.70;10.30;;;;;;;17.45;100.00;98218.50;4966245;28;20046;-67
2023/07/27 02:01:42;;;;;;;13.02;10.40;;;;;;;17.47;100.00;98222.66;4953957;28;20051;-67
2023/07/27 02:04:09;;;;;;;15.65;10.07;;;;;;;17.49;100.00;98223.31;4954084;28;20038;-67
2023/07/27 02:06:36;;;;;;;16.25;10.40;;;;;;;17.53;100.00;98229.16;4949565;28;20066;-67
2023/07/27 02:09:01;;;;;;;12.18;10.13;;;;;;;17.52;100.00;98231.00;4955063;28;20050;-67
2023/07/27 02:11:27;;;;;;;12.25;10.00;;;;;;;17.50;100.00;98232.22;4955210;28;20548;-67
2023/07/27 02:14:18;;;;;;;13.70;11.23;;;;;;;17.46;100.00;98226.38;4955235;28;20417;-67
2023/07/27 02:16:56;;;;;;;14.27;10.25;;;;;;;17.48;100.00;98224.34;4937059;28;20053;-68
2023/07/27 02:19:31;;;;;;;12.50;10.57;;;;;;;17.51;100.00;98217.72;4970224;28;20042;-67
2023/07/27 02:21:58;;;;;;;11.98;9.98;;;;;;;17.54;100.00;98233.53;4951008;28;20537;-67
2023/07/27 02:24:24;;;;;;;11.70;9.90;;;;;;;17.56;100.00;98236.88;4947366;28;20042;-67
2023/07/27 02:26:51;;;;;;;14.13;11.82;;;;;;;17.51;100.00;98244.66;4963702;28;20081;-67
2023/07/27 02:29:17;;;;;;;15.45;11.15;;;;;;;17.42;100.00;98246.63;4946176;28;20045;-68
2023/07/27 02:31:42;;;;;;;14.77;10.90;;;;;;;17.36;100.00;98248.22;4958851;28;20050;-70
2023/07/27 02:34:08;;;;;;;12.90;11.50;;;;;;;17.33;100.00;98258.53;4956821;28;20050;-68
2023/07/27 02:36:33;;;;;;;17.83;12.00;;;;;;;17.33;100.00;98259.38;4939862;28;20049;-65
2023/07/27 02:39:01;;;;;;;14.43;11.50;;;;;;;17.38;100.00;98283.06;4973706;28;20046;-64
2023/07/27 02:41:26;;;;;;;14.82;11.13;;;;;;;17.34;100.00;98274.50;4954121;28;20050;-66
2023/07/27 02:43:52;;;;;;;14.90;11.35;;;;;;;17.35;100.00;98272.66;4939118;28;20039;-65
2023/07/27 02:46:20;;;;;;;14.30;11.48;;;;;;;17.40;100.00;98264.84;4927375;28;20053;-67
2023/07/27 02:48:47;;;;;;;15.15;12.18;;;;;;;17.45;100.00;98238.19;4973575;28;20501;-66
2023/07/27 02:51:12;;;;;;;13.90;10.88;;;;;;;17.52;100.00;98231.00;4973092;28;20842;-66
2023/07/27 02:53:38;;;;;;;21.92;12.40;;;;;;;17.55;100.00;98225.25;4958467;28;20042;-65
2023/07/27 02:56:16;;;;;;;14.80;12.98;;;;;;;17.59;100.00;98218.47;4973321;28;20058;-66
2023/07/27 02:58:46;;;;;;;16.63;12.57;;;;;;;17.58;100.00;98222.19;4973180;28;20058;-67
2023/07/27 03:01:12;;;;;;;16.45;11.88;;;;;;;17.63;100.00;98200.91;4973339;28;20407;-67
2023/07/27 03:03:39;;;;;;;16.40;11.85;;;;;;;17.66;100.00;98184.38;4973453;28;20053;-68
2023/07/27 03:06:07;;;;;;;16.40;12.10;;;;;;;17.68;100.00;98160.75;4972886;28;20054;-64
2023/07/27 03:08:33;;;;;;;16.95;11.85;;;;;;;17.73;100.00;98147.53;4973483;28;20046;-64
2023/07/27 03:11:05;;;;;;;13.90;12.20;;;;;;;17.76;100.00;98132.84;4973642;28;20054;-66
2023/07/27 03:13:32;;;;;;;16.52;12.57;;;;;;;17.76;100.00;98136.38;4956726;28;20046;-66
2023/07/27 03:15:59;;;;;;;32.95;21.50;;;;;;;17.75;100.00;98132.00;4956200;28;20046;-67
2023/07/27 03:18:25;;;;;;;29.25;18.77;;;;;;;17.68;100.00;98150.00;4954494;28;20057;-66
2023/07/27 03:20:51;;;;;;;25.23;17.67;;;;;;;17.65;100.00;98171.09;4957707;28;20409;-66
2023/07/27 03:23:17;;;;;;;21.40;16.05;;;;;;;17.61;100.00;98218.25;4939982;28;20515;-66
2023/07/27 03:25:42;;;;;;;22.95;15.63;;;;;;;17.64;100.00;98229.53;4939926;28;20058;-66
2023/07/27 03:28:08;;;;;;;20.98;15.77;;;;;;;17.68;100.00;98257.78;4955738;28;20054;-67
2023/07/27 03:30:40;;;;;;;17.83;14.15;;;;;;;17.78;100.00;98271.81;4957065;28;20046;-67
2023/07/27 03:33:06;;;;;;;19.30;14.27;;;;;;;17.75;100.00;98298.28;4955874;28;20505;-66
2023/07/27 03:35:34;;;;;;;23.83;16.15;;;;;;;17.60;100.00;98286.69;4972323;28;20042;-67
2023/07/27 03:38:00;;;;;;;34.95;16.50;;;;;;;17.57;100.00;98304.06;4955628;28;20042;-66
2023/07/27 03:40:30;;;;;;;27.55;18.42;;;;;;;17.58;100.00;98311.13;4955064;28;20058;-66
2023/07/27 03:42:55;;;;;;;24.65;18.27;;;;;;;17.58;100.00;98329.97;4952763;28;20508;-66
2023/07/27 03:45:20;;;;;;;22.80;17.13;;;;;;;17.63;100.00;98335.66;4972134;28;20422;-69
2023/07/27 03:47:46;;;;;;;23.58;17.48;;;;;;;17.69;100.00;98310.69;4972353;28;20042;-70
2023/07/27 03:50:13;;;;;;;19.10;15.00;;;;;;;17.76;100.00;98327.78;4955135;28;20054;-70
2023/07/27 03:52:39;;;;;;;17.45;13.38;;;;;;;17.84;100.00;98323.28;4938897;28;20046;-70
2023/07/27 03:55:11;;;;;;;18.35;13.60;;;;;;;17.89;100.00;98328.97;4972395;28;20046;-68
2023/07/27 03:57:37;;;;;;;19.05;11.60;;;;;;;17.84;100.00;98334.91;4964565;28;20415;-72
2023/07/27 04:00:03;;;;;;;15.02;11.95;;;;;;;17.83;100.00;98340.50;4953166;28;20518;-71
2023/07/27 04:02:33;;;;;;;15.48;11.95;;;;;;;17.88;100.00;98346.16;4938180;28;20437;-72
2023/07/27 04:04:58;;;;;;;15.02;11.75;;;;;;;17.91;100.00;98353.88;4954697;28;20050;-71
2023/07/27 04:07:24;;;;;;;13.80;11.52;;;;;;;17.95;100.00;98355.16;4956062;28;20050;-72
2023/07/27 04:09:49;;;;;;;16.00;11.70;;;;;;;17.99;100.00;98361.88;4955832;28;20054;-72
2023/07/27 04:12:14;;;;;;;18.83;11.82;;;;;;;18.01;100.00;98376.84;4957130;28;20505;-71
2023/07/27 04:14:39;;;;;;;13.65;10.80;;;;;;;18.05;100.00;98390.81;4939853;28;20057;-71
2023/07/27 04:17:05;;;;;;;13.43;10.50;;;;;;;18.00;100.00;98391.34;4957135;28;20050;-72
2023/07/27 04:19:31;;;;;;;12.63;10.25;;;;;;;18.01;100.00;98406.50;4957017;28;20493;-71
2023/07/27 04:21:57;;;;;;;16.40;11.27;;;;;;;17.95;100.00;98409.94;4972239;28;20046;-71
2023/07/27 04:24:22;;;;;;;16.48;11.57;;;;;;;17.77;100.00;98415.72;4956640;28;20046;-71
2023/07/27 04:26:48;;;;;;;15.63;10.82;;;;;;;17.72;100.00;98406.47;4973924;28;20042;-72
2023/07/27 04:29:13;;;;;;;16.20;11.82;;;;;;;17.70;100.00;98411.25;4972333;28;20042;-72
2023/07/27 04:31:38;;;;;;;13.82;11.45;;;;;;;17.71;100.00;98416.47;4955537;28;20060;-71
2023/07/27 04:34:04;;;;;;;15.15;12.40;;;;;;;17.73;100.00;98414.38;4972446;28;20049;-73
2023/07/27 04:36:30;;;;;;;17.00;12.65;;;;;;;17.77;100.00;98431.03;4955378;28;20054;-73
2023/07/27 04:38:57;;;;;;;15.23;12.15;;;;;;;17.74;100.00;98426.84;4972440;28;20042;-74
2023/07/27 04:41:24;;;;;;;15.73;12.68;;;;;;;17.75;100.00;98414.22;4956907;28;20054;-74
2023/07/27 04:43:49;;;;;;;16.33;12.27;;;;;;;17.80;100.00;98374.06;4956577;28;20409;-74
2023/07/27 04:46:15;;;;;;;14.48;11.80;;;;;;;17.94;100.00;98361.59;4956559;28;20047;-73
2023/07/27 04:48:40;;;;;;;16.98;14.23;;;;;;;18.06;100.00;98376.25;4970628;28;20046;-73
2023/07/27 04:51:05;;;;;;;18.50;12.73;;;;;;;18.13;100.00;98369.09;4955385;28;20053;-74
2023/07/27 04:53:31;;;;;;;17.73;12.32;;;;;;;18.39;100.00;98352.41;4955322;28;20046;-74
2023/07/27 04:55:56;;;;;;;14.98;12.02;;;;;;;18.70;100.00;98360.22;4955492;28;20046;-72
2023/07/27 04:58:22;;;;;;;14.93;11.70;;;;;;;19.05;100.00;98370.13;4956262;28;20049;-71
2023/07/27 05:00:55;;;;;;;16.40;10.55;;;;;;;19.49;100.00;98378.00;4956508;28;20057;-71
2023/07/27 05:03:20;;;;;;;14.50;10.32;;;;;;;19.66;100.00;98383.91;4956439;28;20639;-72
2023/07/27 05:05:46;;;;;;;12.88;10.43;;;;;;;19.70;98.84;98382.50;4957757;28;20054;-71
2023/07/27 05:08:12;;;;;;;17.05;11.77;;;;;;;19.86;98.06;98387.56;4955220;28;20408;-71
2023/07/27 05:10:41;;;;;;;14.30;10.80;;;;;;;19.75;93.86;98403.56;4956472;28;20049;-73
2023/07/27 05:13:07;;;;;;;15.18;11.00;;;;;;;19.71;93.27;98407.69;4971499;28;20401;-73
2023/07/27 05:15:32;;;;;;;13.90;11.18;;;;;;;19.71;92.87;98397.69;4956118;28;20046;-73
2023/07/27 05:17:57;;;;;;;18.33;12.02;;;;;;;19.63;95.01;98403.25;4954521;28;20061;-74
2023/07/27 05:20:23;;;;;;;16.63;11.57;;;;;;;19.53;96.13;98405.44;4938906;28;20046;-74
2023/07/27 05:22:48;;;;;;;15.07;12.07;;;;;;;19.51;95.24;98418.34;4956023;28;20042;-72
2023/07/27 05:25:14;;;;;;;19.55;12.77;;;;;;;19.56;97.96;98388.84;4956454;28;20450;-72
2023/07/27 05:27:40;;;;;;;20.10;12.43;;;;;;;19.39;97.67;98401.81;4958822;28;20042;-72
2023/07/27 05:30:06;;;;;;;14.15;11.75;;;;;;;19.49;97.72;98404.19;4956516;28;20049;-74
2023/07/27 05:32:31;;;;;;;14.35;11.63;;;;;;;19.65;97.71;98403.03;4954485;28;20053;-73
2023/07/27 05:34:57;;;;;;;13.00;11.48;;;;;;;19.81;96.87;98392.75;4956496;28;20066;-73
2023/07/27 05:37:22;;;;;;;15.05;11.68;;;;;;;20.01;95.15;98408.25;4957902;28;20493;-73
2023/07/27 05:39:47;;;;;;;13.25;10.73;;;;;;;20.23;94.99;98397.13;4957499;28;20061;-73
2023/07/27 05:42:13;;;;;;;13.65;11.23;;;;;;;20.56;95.17;98378.34;4958270;28;20045;-73
2023/07/27 05:44:39;;;;;;;14.43;12.65;;;;;;;20.93;96.09;98397.81;4956472;28;20042;-73
2023/07/27 05:47:05;;;;;;;15.70;12.05;;;;;;;21.07;97.00;98391.38;4955852;28;20050;-72
2023/07/27 05:49:32;;;;;;;14.82;10.15;;;;;;;21.16;96.80;98392.00;4954666;28;20053;-73
2023/07/27 05:51:58;;;;;;;15.63;10.75;;;;;;;21.63;94.86;98378.25;4962236;28;20134;-73
2023/07/27 05:54:24;;;;;;;11.73;10.48;;;;;;;22.29;94.78;98377.28;4978911;28;20600;-73
2023/07/27 05:56:49;;;;;;;12.65;10.23;;;;;;;23.14;92.53;98392.25;4977858;28;20026;-73
2023/07/27 05:59:14;;;;;;;14.05;11.30;;;;;;;23.15;85.45;98393.94;4951769;28;20063;-73
2023/07/27 06:01:40;;;;;;;12.85;10.02;;;;;;;23.31;83.75;98398.84;4940387;28;20043;-74
2023/07/27 06:04:06;;;;;;;15.75;10.80;;;;;;;23.71;82.37;98403.97;4940536;28;20050;-73
2023/07/27 06:06:31;;;;;;;11.10;9.02;;;;;;;24.55;81.99;98395.94;4940263;28;20046;-72
2023/07/27 06:08:57;;;;;;;9.90;8.18;;;;;;;25.49;84.23;98372.53;4940540;28;20065;-72
2023/07/27 06:11:23;;;;;;;10.70;8.85;;;;;;;26.75;83.26;98373.66;4938657;28;20050;-72
2023/07/27 06:13:49;;;;;;;10.07;8.75;;;;;;;27.60;75.89;98370.84;4940076;28;20046;-73
2023/07/27 06:16:15;;;;;;;10.45;8.82;;;;;;;28.23;75.47;98358.59;4958884;28;20041;-73
2023/07/27 06:18:40;;;;;;;11.05;8.80;;;;;;;28.62;72.65;98362.09;4958430;28;20046;-73
2023/07/27 06:21:06;;;;;;;13.98;9.20;;;;;;;28.51;71.21;98361.16;4959635;28;20034;-72
2023/07/27 06:23:31;;;;;;;13.60;8.77;;;;;;;28.51;69.64;98368.56;4957775;28;20054;-74
2023/07/27 06:25:56;;;;;;;10.43;8.60;;;;;;;29.10;68.56;98365.94;4959268;28;20043;-74
2023/07/27 06:28:22;;;;;;;16.63;8.52;;;;;;;30.19;65.34;98366.22;4959287;28;20054;-73
2023/07/27 06:30:48;;;;;;;12.00;8.23;;;;;;;30.55;64.04;98355.41;4958857;28;20417;-66
2023/07/27 06:33:15;;;;;;;14.80;8.63;;;;;;;30.10;63.63;98362.34;4957211;28;20054;-67
2023/07/27 06:35:42;;;;;;;12.52;7.20;;;;;;;29.93;63.88;98362.47;4958527;28;20491;-67
2023/07/27 06:38:08;;;;;;;10.85;6.75;;;;;;;30.97;62.22;98355.25;4958744;28;20050;-67
2023/07/27 06:40:33;;;;;;;8.98;7.20;;;;;;;31.39;59.81;98375.13;4958793;28;20050;-67
2023/07/27 06:43:00;;;;;;;11.10;6.50;;;;;;;31.04;58.90;98361.28;4958787;28;20053;-67
2023/07/27 06:45:25;;;;;;;7.88;6.60;;;;;;;30.61;58.25;98357.06;4973617;28;20524;-67
2023/07/27 06:47:50;;;;;;;10.57;6.85;;;;;;;29.94;60.94;98364.13;4958600;28;20046;-67
2023/07/27 06:50:16;;;;;;;8.75;7.03;;;;;;;29.61;61.28;98369.94;4957075;28;20042;-66
2023/07/27 06:52:42;;;;;;;8.98;7.25;;;;;;;29.34;60.90;98358.19;4958858;28;20046;-67
2023/07/27 06:55:08;;;;;;;12.18;6.60;;;;;;;29.45;57.71;98354.47;4958807;28;20879;-66
2023/07/27 06:57:33;;;;;;;9.30;6.03;;;;;;;29.90;58.34;98360.28;4956822;28;20413;-68
2023/07/27 06:59:59;;;;;;;9.48;6.63;;;;;;;31.39;57.65;98331.06;4972998;28;20042;-67
2023/07/27 07:02:24;;;;;;;17.90;6.72;;;;;;;33.09;54.56;98353.97;4958379;28;20050;-67
2023/07/27 07:04:50;;;;;;;8.40;6.88;;;;;;;34.21;50.93;98353.78;4958415;28;20050;-67
2023/07/27 07:07:16;;;;;;;9.55;6.95;;;;;;;34.94;48.98;98361.75;4956571;28;20073;-66
2023/07/27 07:09:42;;;;;;;12.05;6.60;;;;;;;35.48;47.32;98343.75;4958401;28;20042;-65
2023/07/27 07:12:09;;;;;;;9.18;6.13;;;;;;;36.20;45.95;98343.28;4957178;28;20528;-65
2023/07/27 07:14:34;;;;;;;8.45;6.35;;;;;;;36.97;44.37;98341.38;4974126;28;20528;-65
2023/07/27 07:17:01;;;;;;;7.65;6.35;;;;;;;38.07;41.78;98346.41;4962157;28;20049;-66
2023/07/27 07:19:26;;;;;;;7.90;6.20;;;;;;;38.90;37.86;98357.69;4958300;28;20057;-66
2023/07/27 07:21:52;;;;;;;6.78;6.07;;;;;;;37.96;36.23;98343.09;4957983;28;20050;-66
2023/07/27 07:24:18;;;;;;;7.88;6.22;;;;;;;35.99;39.44;98334.56;4958141;28;20057;-67
2023/07/27 07:26:43;;;;;;;5.97;5.10;;;;;;;34.20;41.60;98348.59;4958038;28;20042;-69
2023/07/27 07:29:11;;;;;;;6.45;5.68;;;;;;;33.54;40.91;98335.38;4958195;28;20053;-68
2023/07/27 07:31:40;;;;;;;9.68;6.25;;;;;;;34.90;42.60;98326.66;4957786;28;20038;-68
2023/07/27 07:34:05;;;;;;;8.25;6.32;;;;;;;36.82;40.06;98327.03;4958029;28;20045;-68
2023/07/27 07:36:34;;;;;;;6.57;5.40;;;;;;;38.46;37.95;98331.69;4957699;28;20038;-66
2023/07/27 07:39:00;;;;;;;6.40;5.80;;;;;;;39.36;36.32;98279.81;4967738;28;20069;-65
2023/07/27 07:41:25;;;;;;;7.00;6.30;;;;;;;38.12;35.62;98326.84;4962393;28;20046;-66
2023/07/27 07:43:51;;;;;;;7.88;5.80;;;;;;;36.43;36.28;98347.03;4973003;28;20070;-67
2023/07/27 07:46:16;;;;;;;6.45;5.53;;;;;;;34.33;39.01;98328.50;4956582;28;20537;-66
2023/07/27 07:48:42;;;;;;;8.02;5.90;;;;;;;33.21;40.96;98316.88;4956359;28;20054;-68
2023/07/27 07:51:12;;;;;;;6.05;5.45;;;;;;;33.09;41.78;98325.50;4957934;28;20046;-68
2023/07/27 07:53:38;;;;;;;7.53;6.20;;;;;;;34.25;42.46;98307.00;4972627;28;20488;-67
2023/07/27 07:56:04;;;;;;;9.88;5.93;;;;;;;35.97;40.84;98329.31;4956077;28;20046;-68
2023/07/27 07:58:29;;;;;;;10.00;6.00;;;;;;;37.91;37.60;98314.63;4955829;28;20046;-68
2023/07/27 08:00:57;;;;;;;9.38;6.72;;;;;;;39.55;35.50;98291.44;4955485;28;20057;-67
2023/07/27 08:03:23;;;;;;;11.23;6.53;;;;;;;39.87;34.74;98320.75;4957662;28;20054;-67
2023/07/27 08:05:48;;;;;;;8.07;7.13;;;;;;;40.18;33.40;98328.84;4957048;28;20042;-67
2023/07/27 08:08:14;;;;;;;9.82;6.85;;;;;;;39.65;32.37;98320.97;4957253;28;20046;-68
2023/07/27 08:10:40;;;;;;;8.52;7.22;;;;;;;39.96;32.63;98334.69;4957161;28;20512;-66
2023/07/27 08:13:05;;;;;;;8.60;7.05;;;;;;;40.52;31.93;98319.47;4957134;28;20042;-66
2023/07/27 08:15:31;;;;;;;9.18;6.70;;;;;;;41.49;30.97;98326.84;4957138;28;20053;-67
2023/07/27 08:17:56;;;;;;;7.30;6.68;;;;;;;41.43;29.23;98323.41;4956724;28;20046;-66
2023/07/27 08:20:22;;;;;;;8.25;7.28;;;;;;;41.44;29.33;98343.81;4956898;28;20057;-67
2023/07/27 08:22:47;;;;;;;7.47;6.78;;;;;;;42.27;29.53;98318.41;4971748;28;20042;-66
2023/07/27 08:25:14;;;;;;;8.48;7.60;;;;;;;42.98;28.14;98313.09;4955297;28;20429;-66
2023/07/27 08:27:43;;;;;;;8.82;7.97;;;;;;;43.31;24.89;98315.69;4956677;28;20046;-66
2023/07/27 08:30:09;;;;;;;9.13;8.23;;;;;;;41.75;26.31;98326.59;4971794;28;20077;-66
2023/07/27 08:32:37;;;;;;;11.85;9.32;;;;;;;41.19;26.87;98326.13;4954831;28;20057;-66
2023/07/27 08:35:04;;;;;;;8.77;7.97;;;;;;;40.75;26.52;98333.19;4956587;28;20046;-66
2023/07/27 08:37:32;;;;;;;8.48;7.65;;;;;;;40.35;25.29;98327.97;4956529;28;20053;-66
2023/07/27 08:39:58;;;;;;;10.30;7.55;;;;;;;39.66;26.45;98322.59;4956745;28;20080;-65
2023/07/27 08:42:28;;;;;;;8.55;7.75;;;;;;;38.84;27.67;98326.38;4956453;28;20406;-65
2023/07/27 08:44:54;;;;;;;8.23;7.38;;;;;;;37.89;28.82;98322.44;4971670;28;20052;-66
2023/07/27 08:47:20;;;;;;;9.35;6.72;;;;;;;37.83;28.59;98327.31;4956369;28;20081;-66
2023/07/27 08:49:46;;;;;;;8.75;7.32;;;;;;;37.09;29.61;98327.78;4956409;28;20042;-66
2023/07/27 08:52:13;;;;;;;8.45;6.72;;;;;;;35.87;30.25;98334.22;4956353;28;20060;-66
2023/07/27 08:54:39;;;;;;;8.82;7.05;;;;;;;35.42;31.86;98333.06;4938503;28;20393;-67
2023/07/27 08:57:05;;;;;;;8.88;6.90;;;;;;;36.72;30.82;98341.97;4956167;28;20390;-66
2023/07/27 08:59:31;;;;;;;13.98;8.93;;;;;;;37.38;28.72;98332.09;4955976;28;20061;-66
2023/07/27 09:01:59;;;;;;;11.43;7.60;;;;;;;36.35;30.33;98329.13;4956244;28;20049;-66
2023/07/27 09:04:24;;;;;;;9.57;6.35;;;;;;;35.21;31.43;98327.84;4954969;28;20046;-66
2023/07/27 09:06:50;;;;;;;8.77;6.70;;;;;;;34.95;32.37;98345.97;4954308;28;20054;-66
2023/07/27 09:09:17;;;;;;;7.03;6.32;;;;;;;36.24;31.18;98352.66;4954942;28;20050;-66
2023/07/27 09:11:44;;;;;;;8.63;7.05;;;;;;;37.84;29.64;98344.84;4955772;28;20046;-65
2023/07/27 09:14:10;;;;;;;8.88;6.55;;;;;;;39.56;28.14;98336.91;4936817;28;20043;-67
2023/07/27 09:16:36;;;;;;;7.80;7.00;;;;;;;40.56;26.03;98341.97;4936901;28;20043;-66
2023/07/27 09:19:02;;;;;;;8.23;7.43;;;;;;;40.74;26.07;98346.34;4936885;28;20548;-66
2023/07/27 09:21:36;;;;;;;8.85;7.97;;;;;;;39.54;26.89;98344.78;4935271;28;20059;-67
2023/07/27 09:24:02;;;;;;;9.75;8.02;;;;;;;37.84;28.60;98353.19;4937159;28;20046;-76
2023/07/27 09:26:28;;;;;;;9.65;8.05;;;;;;;37.75;29.05;98355.91;4936888;28;20043;-77
2023/07/27 09:28:54;;;;;;;9.75;7.00;;;;;;;38.98;28.06;98360.53;4934832;28;20453;-76
2023/07/27 09:31:20;;;;;;;10.23;7.57;;;;;;;40.22;26.22;98354.13;4936476;28;20065;-75
2023/07/27 09:33:46;;;;;;;8.88;7.95;;;;;;;41.08;25.68;98352.84;4953300;28;20054;-76
2023/07/27 09:36:13;;;;;;;9.88;8.98;;;;;;;40.97;25.31;98369.22;4962309;28;20046;-76
2023/07/27 09:38:39;;;;;;;10.95;8.60;;;;;;;39.66;25.64;98347.72;4962521;28;20049;-75
2023/07/27 09:41:08;;;;;;;15.32;9.68;;;;;;;37.77;27.28;98354.47;4960739;28;20050;-74
2023/07/27 09:43:41;;;;;;;11.23;7.80;;;;;;;36.16;28.95;98359.72;4962330;28;20053;-75
2023/07/27 09:46:06;;;;;;;13.40;7.50;;;;;;;35.53;30.93;98335.38;4960796;28;20049;-74
2023/07/27 09:48:32;;;;;;;9.10;7.07;;;;;;;36.05;30.23;98347.19;4962060;28;20050;-75
2023/07/27 09:51:02;;;;;;;10.23;7.55;;;;;;;36.71;29.74;98327.25;4960044;28;20042;-75
2023/07/27 09:53:31;;;;;;;9.27;7.65;;;;;;;36.93;29.23;98333.97;4960435;28;20050;-76
2023/07/27 09:56:22;;;;;;;9.10;6.70;;;;;;;36.18;29.91;98329.72;4961202;28;20408;-75
2023/07/27 09:58:48;;;;;;;9.27;7.32;;;;;;;34.98;31.00;98339.84;4960813;28;20058;-76
2023/07/27 10:01:14;;;;;;;7.75;6.95;;;;;;;34.21;32.64;98308.69;4960234;28;20501;-75
2023/07/27 10:03:39;;;;;;;8.73;7.25;;;;;;;33.42;33.76;98313.66;4976853;28;20042;-75
2023/07/27 10:06:05;;;;;;;11.13;7.55;;;;;;;32.61;34.56;98325.28;4944501;28;20065;-76
2023/07/27 10:08:34;;;;;;;11.68;7.28;;;;;;;32.87;34.83;98327.88;4945220;28;20054;-74
2023/07/27 10:11:01;;;;;;;11.68;7.45;;;;;;;32.69;35.07;98319.13;4946934;28;20113;-73
2023/07/27 10:13:27;;;;;;;11.93;7.18;;;;;;;32.39;35.30;98300.78;4944744;28;20050;-73
2023/07/27 10:15:55;;;;;;;10.68;7.35;;;;;;;32.09;35.63;98298.97;4947465;28;20397;-72
2023/07/27 10:18:25;;;;;;;9.07;6.50;;;;;;;33.00;34.63;98308.75;4945332;28;20062;-72
2023/07/27 10:21:21;;;;;;;10.50;7.80;;;;;;;34.11;33.81;98287.53;4945603;28;20062;-75
2023/07/27 10:23:54;;;;;;;12.25;6.60;;;;;;;33.52;34.05;98308.03;4946277;28;20060;-76
2023/07/27 10:26:39;;;;;;;7.95;6.82;;;;;;;32.59;35.49;98288.84;4945783;28;20046;-76
2023/07/27 10:29:17;;;;;;;8.27;6.50;;;;;;;32.06;36.51;98280.22;4944775;28;20513;-74
2023/07/27 10:31:44;;;;;;;9.15;7.50;;;;;;;30.90;36.44;98283.13;4946285;28;20038;-75
2023/07/27 10:34:15;;;;;;;7.38;6.30;;;;;;;30.00;38.52;98257.84;4960300;28;20050;-75
2023/07/27 10:36:52;;;;;;;10.63;6.97;;;;;;;29.79;39.34;98254.16;4945712;28;20073;-75
2023/07/27 10:39:45;;;;;;;8.65;6.05;;;;;;;29.92;40.04;98256.41;4946046;28;20485;-73
2023/07/27 10:42:13;;;;;;;9.55;6.38;;;;;;;29.63;40.56;98252.41;4942976;28;20788;-73
2023/07/27 10:44:42;;;;;;;11.80;6.57;;;;;;;29.63;40.43;98251.59;4953300;28;20038;-74
2023/07/27 10:47:10;;;;;;;9.98;6.43;;;;;;;29.51;40.40;98269.09;4946215;28;20038;-74
2023/07/27 10:49:46;;;;;;;9.07;6.75;;;;;;;29.46;39.91;98262.75;4943066;28;20046;-75
2023/07/27 10:52:17;;;;;;;9.88;6.68;;;;;;;28.92;41.27;98271.09;4957665;28;20046;-74
2023/07/27 10:54:43;;;;;;;13.68;6.43;;;;;;;28.76;41.17;98280.25;4957134;28;20061;-75
2023/07/27 10:57:10;;;;;;;9.00;6.20;;;;;;;28.67;41.28;98282.59;4958639;28;20061;-67
2023/07/27 10:59:39;;;;;;;12.10;6.55;;;;;;;28.59;41.59;98276.78;4958134;28;20425;-67
2023/07/27 11:02:15;;;;;;;8.00;5.75;;;;;;;28.49;42.49;98307.66;4958486;28;20050;-75
2023/07/27 11:04:42;;;;;;;11.90;6.97;;;;;;;28.29;42.67;98291.81;4959338;28;20049;-75
2023/07/27 11:07:36;;;;;;;8.98;6.30;;;;;;;27.96;43.36;98294.66;4961591;28;20053;-75
2023/07/27 11:10:04;;;;;;;11.63;6.68;;;;;;;27.72;42.51;98307.75;4975123;28;20073;-75
2023/07/27 11:12:31;;;;;;;8.07;6.32;;;;;;;27.18;43.83;98328.53;4961049;28;20049;-75
2023/07/27 11:18:21;;;;;;;9.05;7.05;;;;;;;26.97;44.81;98325.44;4951160;28;20520;-74
2023/07/27 11:20:47;;;;;;;10.07;6.75;;;;;;;26.68;45.09;98316.41;4948740;28;20046;-74
2023/07/27 11:23:13;;;;;;;12.63;7.75;;;;;;;26.54;45.55;98297.81;4942092;28;20047;-74
2023/07/27 11:25:38;;;;;;;8.07;6.55;;;;;;;26.53;46.38;98307.06;4954254;28;20045;-72
2023/07/27 11:28:31;;;;;;;7.85;6.60;;;;;;;26.77;46.27;98316.81;4953827;28;20043;-73